Time;durP1;ratioP1;P1;durP2;ratioP2;P2;SDS_P1;SDS_P2;PMS_P1;PMS_P2;Temp;Humidity;BMP_temperature;BMP_pressure;BME280_temperature;BME280_humidity;BME280_pressure;Samples;Min_cycle;Max_cycle;Signal;HPM_P1;HPM_P2
2021/08/16 00:01:09;;;;;;;11.30;4.15;;;;;;;14.11;57.87;95049.81;5009132;28;20029;-68
2021/08/16 00:03:34;;;;;;;9.68;4.60;;;;;;;14.12;57.91;95051.47;5008666;28;20029;-68
2021/08/16 00:06:00;;;;;;;9.93;4.25;;;;;;;13.92;58.22;95055.06;5008929;28;20046;-68
2021/08/16 00:08:25;;;;;;;8.95;4.80;;;;;;;13.74;59.60;95063.75;5008544;28;20672;-67
2021/08/16 00:10:50;;;;;;;9.15;4.85;;;;;;;13.76;59.21;95067.03;5008645;28;20046;-68
2021/08/16 00:13:16;;;;;;;12.30;4.82;;;;;;;13.50;60.31;95060.75;5008370;28;20033;-67
2021/08/16 00:15:41;;;;;;;11.27;5.25;;;;;;;12.70;62.37;95068.63;5009024;28;20074;-66
2021/08/16 00:18:07;;;;;;;8.23;4.43;;;;;;;13.25;61.11;95072.94;5007775;28;20045;-67
2021/08/16 00:20:32;;;;;;;8.68;5.20;;;;;;;13.14;60.74;95066.38;5008454;28;20029;-68
2021/08/16 00:22:58;;;;;;;9.27;4.13;;;;;;;12.84;61.44;95048.06;5008689;28;20383;-67
2021/08/16 00:25:23;;;;;;;9.07;5.18;;;;;;;12.83;61.84;95056.28;5008719;28;20415;-67
2021/08/16 00:27:49;;;;;;;10.98;5.35;;;;;;;13.12;60.63;95049.72;5008614;28;20494;-67
2021/08/16 00:30:14;;;;;;;10.18;5.10;;;;;;;12.80;61.17;95052.19;5008031;28;20034;-68
2021/08/16 00:32:40;;;;;;;9.68;4.90;;;;;;;12.97;60.19;95051.75;5008409;28;20041;-68
2021/08/16 00:35:06;;;;;;;7.22;3.85;;;;;;;12.70;61.86;95051.78;5008631;28;20041;-68
2021/08/16 00:37:31;;;;;;;9.63;5.30;;;;;;;13.01;61.03;95056.53;5006692;28;20054;-68
2021/08/16 00:39:56;;;;;;;13.48;6.13;;;;;;;13.72;58.60;95061.28;5009067;28;20033;-68
2021/08/16 00:42:22;;;;;;;11.35;4.38;;;;;;;12.74;61.59;95053.84;5008307;28;20037;-68
2021/08/16 00:44:47;;;;;;;12.18;6.28;;;;;;;13.01;61.31;95039.66;5007011;28;20034;-66
2021/08/16 00:47:14;;;;;;;15.48;6.40;;;;;;;13.41;59.90;95065.50;5008402;28;20044;-66
2021/08/16 00:49:40;;;;;;;9.63;4.60;;;;;;;12.79;61.59;95045.22;5006720;28;20494;-68
2021/08/16 00:52:06;;;;;;;12.00;5.38;;;;;;;12.39;62.82;95038.84;5006899;28;20021;-66
2021/08/16 00:54:31;;;;;;;14.45;6.32;;;;;;;12.47;63.09;95055.66;4990645;28;20014;-67
2021/08/16 00:57:00;;;;;;;12.30;6.25;;;;;;;12.28;64.03;95050.91;5007560;28;20038;-66
2021/08/16 00:59:26;;;;;;;12.75;6.30;;;;;;;12.13;65.10;95079.59;4990429;28;20026;-67
2021/08/16 01:01:51;;;;;;;11.32;5.43;;;;;;;11.93;66.09;95074.19;5006209;28;20048;-65
2021/08/16 01:04:16;;;;;;;11.50;6.72;;;;;;;12.40;65.17;95055.66;5007842;28;20033;-64
2021/08/16 01:06:42;;;;;;;10.93;5.43;;;;;;;12.02;65.98;95059.66;5007839;28;20030;-64
2021/08/16 01:09:07;;;;;;;11.68;5.50;;;;;;;12.07;65.98;95059.88;5007407;28;20399;-64
2021/08/16 01:11:33;;;;;;;12.60;6.22;;;;;;;12.41;64.80;95046.63;5008292;28;20038;-66
2021/08/16 01:13:58;;;;;;;11.07;6.45;;;;;;;12.22;65.00;95056.25;5007643;28;20033;-67
2021/08/16 01:16:24;;;;;;;13.20;7.13;;;;;;;11.90;64.83;95054.91;5009144;28;20045;-66
2021/08/16 01:18:49;;;;;;;13.30;7.00;;;;;;;11.87;65.75;95059.81;5007723;28;20029;-67
2021/08/16 01:21:16;;;;;;;10.95;6.63;;;;;;;11.53;66.50;95073.00;5007902;28;20034;-66
2021/08/16 01:23:42;;;;;;;11.68;6.07;;;;;;;10.97;66.96;95072.84;5007920;28;20026;-66
2021/08/16 01:26:08;;;;;;;9.35;5.20;;;;;;;10.68;66.84;95060.53;5007760;28;20037;-65
2021/08/16 01:28:33;;;;;;;10.77;5.55;;;;;;;10.84;67.00;95065.56;5007491;28;20042;-64
2021/08/16 01:31:00;;;;;;;12.52;4.55;;;;;;;10.41;66.93;95055.81;5007588;28;20043;-66
2021/08/16 01:33:25;;;;;;;10.98;3.90;;;;;;;10.77;66.02;95066.56;5005826;28;20125;-66
2021/08/16 01:35:51;;;;;;;8.07;4.20;;;;;;;10.88;65.61;95058.00;5006609;28;20491;-66
2021/08/16 01:38:20;;;;;;;8.38;4.07;;;;;;;10.96;65.47;95054.38;5007374;28;20459;-67
2021/08/16 01:40:46;;;;;;;11.98;4.78;;;;;;;11.08;64.64;95052.84;5007507;28;20416;-67
2021/08/16 01:43:11;;;;;;;8.38;4.22;;;;;;;10.64;65.76;95057.41;5007914;28;20439;-67
2021/08/16 01:45:37;;;;;;;13.13;4.55;;;;;;;10.48;66.29;95056.69;5007460;28;20041;-66
2021/08/16 01:48:02;;;;;;;10.65;4.20;;;;;;;10.57;66.14;95062.69;5007598;28;20026;-66
2021/08/16 01:50:28;;;;;;;9.85;3.35;;;;;;;10.52;66.25;95058.97;5007399;28;20041;-64
2021/08/16 01:52:53;;;;;;;9.23;3.20;;;;;;;10.61;65.96;95053.31;5003041;28;20112;-66
2021/08/16 01:55:19;;;;;;;8.07;3.78;;;;;;;10.90;65.25;95055.16;5007621;28;20041;-67
2021/08/16 01:57:44;;;;;;;5.55;3.03;;;;;;;10.73;64.86;95047.47;5003645;28;20419;-67
2021/08/16 02:00:10;;;;;;;5.97;3.28;;;;;;;10.96;64.63;95043.75;5007147;28;20375;-67
2021/08/16 02:02:35;;;;;;;6.75;3.25;;;;;;;10.54;65.72;95056.94;5007772;28;20522;-67
2021/08/16 02:05:01;;;;;;;5.97;3.20;;;;;;;10.88;64.16;95050.03;5007042;28;20045;-67
2021/08/16 02:07:26;;;;;;;5.57;2.78;;;;;;;10.52;65.02;95049.16;5007680;28;20709;-67
2021/08/16 02:09:52;;;;;;;3.88;2.60;;;;;;;10.27;66.01;95044.19;5006868;28;20093;-67
2021/08/16 02:12:17;;;;;;;4.57;2.42;;;;;;;10.07;66.31;95046.69;5006889;28;20090;-68
2021/08/16 02:14:43;;;;;;;4.75;2.83;;;;;;;9.84;65.80;95043.16;5007283;28;20547;-68
2021/08/16 02:17:08;;;;;;;4.05;2.67;;;;;;;9.66;65.82;95043.53;5006935;28;20102;-67
2021/08/16 02:19:33;;;;;;;3.25;2.45;;;;;;;9.53;66.71;95043.38;5007086;28;20026;-64
2021/08/16 02:21:59;;;;;;;4.68;2.72;;;;;;;9.49;66.48;95048.25;5007081;28;20375;-66
2021/08/16 02:24:24;;;;;;;4.88;2.55;;;;;;;9.93;65.07;95035.84;5005162;28;20034;-66
2021/08/16 02:26:50;;;;;;;3.35;2.40;;;;;;;9.67;66.20;95033.72;5007512;28;20037;-66
2021/08/16 02:29:15;;;;;;;6.05;2.20;;;;;;;10.10;64.90;95033.81;5006868;28;20037;-67
2021/08/16 02:31:40;;;;;;;4.20;2.80;;;;;;;9.79;65.88;95040.19;5011520;28;20044;-67
2021/08/16 02:34:06;;;;;;;3.58;2.67;;;;;;;9.69;65.79;95040.50;5006994;28;20042;-67
2021/08/16 02:36:31;;;;;;;4.97;2.42;;;;;;;10.31;63.71;95032.19;5006702;28;20042;-67
2021/08/16 02:38:57;;;;;;;4.57;2.50;;;;;;;10.45;62.82;95037.63;5006970;28;20053;-67
2021/08/16 02:41:22;;;;;;;3.60;2.05;;;;;;;10.10;63.84;95060.41;5007415;28;20050;-67
2021/08/16 02:43:48;;;;;;;4.50;2.00;;;;;;;9.96;63.57;95039.97;5010647;28;20034;-67
2021/08/16 02:46:13;;;;;;;3.75;1.77;;;;;;;9.83;63.48;95030.84;5010241;28;20100;-68
2021/08/16 02:48:38;;;;;;;7.63;2.50;;;;;;;9.38;64.59;95035.44;5009518;28;20467;-67
2021/08/16 02:51:04;;;;;;;4.13;1.95;;;;;;;9.63;63.34;95024.47;5010828;28;20502;-66
2021/08/16 02:53:29;;;;;;;6.43;2.17;;;;;;;9.68;63.38;95036.22;5009109;28;20034;-66
2021/08/16 02:55:55;;;;;;;3.47;1.80;;;;;;;9.24;63.73;95040.56;5010475;28;20136;-66
2021/08/16 02:58:20;;;;;;;4.60;2.40;;;;;;;9.03;63.66;95031.50;5007976;28;20072;-66
2021/08/16 03:00:45;;;;;;;5.40;2.13;;;;;;;9.31;62.45;95046.78;5010057;28;20067;-67
2021/08/16 03:03:11;;;;;;;1.95;1.77;;;;;;;9.07;62.72;95038.09;5010120;28;20038;-67
2021/08/16 03:05:36;;;;;;;4.38;1.83;;;;;;;8.82;61.94;95038.31;5009926;28;20096;-67
2021/08/16 03:08:02;;;;;;;3.33;1.75;;;;;;;8.69;62.38;95048.72;5010478;28;20383;-67
2021/08/16 03:10:27;;;;;;;3.10;1.75;;;;;;;8.65;62.58;95045.63;5009535;28;20501;-67
2021/08/16 03:12:53;;;;;;;4.57;1.95;;;;;;;8.80;61.27;95050.94;5009986;28;20434;-67
2021/08/16 03:15:18;;;;;;;4.97;2.10;;;;;;;8.74;60.92;95050.84;5010372;28;20475;-67
2021/08/16 03:17:43;;;;;;;4.20;1.83;;;;;;;8.66;60.70;95046.41;5009410;28;20048;-68
2021/08/16 03:20:10;;;;;;;3.58;1.88;;;;;;;8.45;61.27;95047.94;5009461;28;20142;-66
2021/08/16 03:22:35;;;;;;;3.70;1.55;;;;;;;8.06;62.33;95052.34;5010044;28;20021;-67
2021/08/16 03:25:01;;;;;;;2.50;1.67;;;;;;;8.27;61.52;95051.69;5009513;28;20064;-67
2021/08/16 03:27:26;;;;;;;4.25;2.20;;;;;;;8.44;60.76;95048.94;5009923;28;20034;-67
2021/08/16 03:29:51;;;;;;;12.70;2.33;;;;;;;8.67;60.57;95040.13;5009366;28;20427;-67
2021/08/16 03:32:17;;;;;;;3.65;1.60;;;;;;;8.42;60.39;95041.16;5013065;28;20049;-67
2021/08/16 03:34:42;;;;;;;4.35;1.80;;;;;;;8.59;60.25;95033.06;5009696;28;20038;-67
2021/08/16 03:37:08;;;;;;;5.88;1.92;;;;;;;8.47;60.32;95037.94;5007613;28;20029;-67
2021/08/16 03:39:33;;;;;;;4.20;1.48;;;;;;;8.35;61.07;95040.22;5009500;28;20530;-67
2021/08/16 03:41:59;;;;;;;3.78;1.50;;;;;;;8.34;60.88;95049.19;5009411;28;20038;-67
2021/08/16 03:44:24;;;;;;;3.70;1.63;;;;;;;7.95;61.52;95052.78;5009140;28;20061;-68
2021/08/16 03:46:49;;;;;;;3.53;1.42;;;;;;;7.67;62.82;95038.16;5009130;28;20088;-68
2021/08/16 03:49:15;;;;;;;5.22;1.63;;;;;;;7.44;63.87;95048.69;5008124;28;20104;-67
2021/08/16 03:51:40;;;;;;;7.95;1.77;;;;;;;7.45;63.79;95043.19;5008313;28;20095;-67
2021/08/16 03:54:06;;;;;;;1.85;1.35;;;;;;;7.29;64.34;95057.34;5006620;28;20487;-67
2021/08/16 03:56:31;;;;;;;2.83;1.40;;;;;;;7.46;63.67;95042.22;5008803;28;20037;-68
2021/08/16 03:58:57;;;;;;;2.97;1.30;;;;;;;7.29;64.12;95044.13;5005736;28;20021;-68
2021/08/16 04:01:22;;;;;;;2.53;1.67;;;;;;;7.52;63.40;95032.78;5007453;28;20498;-67
2021/08/16 04:03:48;;;;;;;3.83;1.65;;;;;;;7.36;63.29;95034.50;5009211;28;20049;-67
2021/08/16 04:06:13;;;;;;;10.35;1.92;;;;;;;7.40;63.10;95027.84;5005526;28;20041;-69
2021/08/16 04:08:40;;;;;;;2.80;1.23;;;;;;;7.22;63.03;95020.16;5007906;28;20045;-68
2021/08/16 04:11:09;;;;;;;6.00;1.55;;;;;;;7.49;62.65;95025.16;5005284;28;20045;-68
2021/08/16 04:13:34;;;;;;;2.22;0.98;;;;;;;7.33;62.76;95029.53;5007632;28;20083;-67
2021/08/16 04:16:00;;;;;;;5.00;1.70;;;;;;;7.57;62.35;95032.22;5009095;28;20517;-67
2021/08/16 04:18:25;;;;;;;2.88;1.23;;;;;;;7.48;62.64;95029.63;5007781;28;20132;-68
2021/08/16 04:20:51;;;;;;;4.72;1.50;;;;;;;7.49;62.37;95033.94;5008569;28;20056;-68
2021/08/16 04:23:16;;;;;;;2.85;1.20;;;;;;;7.40;62.74;95034.97;5009521;28;20577;-68
2021/08/16 04:25:42;;;;;;;5.00;1.55;;;;;;;7.68;62.73;95038.97;5008483;28;20042;-68
2021/08/16 04:28:07;;;;;;;3.58;1.58;;;;;;;7.49;62.04;95052.50;5008956;28;20050;-68
2021/08/16 04:30:33;;;;;;;5.95;1.23;;;;;;;7.79;61.43;95044.72;5010750;28;20501;-68
2021/08/16 04:32:58;;;;;;;6.28;1.70;;;;;;;7.99;60.36;95044.28;5008568;28;20048;-68
2021/08/16 04:35:23;;;;;;;4.53;1.67;;;;;;;8.02;60.16;95049.22;5008770;28;20137;-68
2021/08/16 04:37:49;;;;;;;4.13;1.50;;;;;;;8.33;59.25;95047.53;5007949;28;20037;-68
2021/08/16 04:40:14;;;;;;;5.38;1.45;;;;;;;8.50;58.80;95048.22;5008181;28;20062;-68
2021/08/16 04:42:40;;;;;;;2.83;1.55;;;;;;;8.34;59.60;95049.19;5008848;28;20025;-68
2021/08/16 04:45:06;;;;;;;1.35;1.00;;;;;;;8.15;60.32;95048.66;5008396;28;20045;-68
2021/08/16 04:47:32;;;;;;;4.90;1.67;;;;;;;8.11;60.17;95051.81;5007349;28;20080;-68
2021/08/16 04:49:57;;;;;;;2.90;1.48;;;;;;;7.79;61.20;95060.63;5007972;28;20034;-68
2021/08/16 04:52:24;;;;;;;2.60;1.50;;;;;;;8.04;60.45;95054.38;5008356;28;20034;-68
2021/08/16 04:54:49;;;;;;;3.60;1.48;;;;;;;8.84;58.18;95053.25;5007379;28;20033;-69
2021/08/16 04:57:14;;;;;;;5.72;1.50;;;;;;;9.07;57.54;95045.22;5007119;28;20096;-68
2021/08/16 04:59:40;;;;;;;4.47;1.45;;;;;;;9.39;56.42;95056.47;5006545;28;20044;-68
2021/08/16 05:02:05;;;;;;;3.03;1.20;;;;;;;9.12;57.34;95057.97;5008498;28;20598;-68
2021/08/16 05:04:31;;;;;;;1.50;1.15;;;;;;;9.08;57.84;95055.66;5007110;28;20034;-69
2021/08/16 05:06:56;;;;;;;3.33;1.92;;;;;;;9.30;57.29;95063.75;5008463;28;20090;-68
2021/08/16 05:09:22;;;;;;;3.33;1.33;;;;;;;9.63;56.38;95057.22;5007860;28;20533;-69
2021/08/16 05:11:47;;;;;;;1.90;1.20;;;;;;;9.85;56.04;95051.94;5008537;28;20098;-69
2021/08/16 05:14:12;;;;;;;4.55;1.67;;;;;;;9.69;56.08;95045.00;5007746;28;20038;-69
2021/08/16 05:16:38;;;;;;;2.90;1.42;;;;;;;10.12;54.45;95043.44;5007680;28;20042;-69
2021/08/16 05:19:03;;;;;;;5.20;1.80;;;;;;;10.28;54.28;95048.53;5003539;28;20088;-68
2021/08/16 05:21:30;;;;;;;2.33;1.48;;;;;;;10.25;54.37;95058.72;5006552;28;20125;-68
2021/08/16 05:23:55;;;;;;;3.00;1.40;;;;;;;10.58;53.23;95053.69;5009152;28;20402;-69
2021/08/16 05:26:21;;;;;;;3.80;1.25;;;;;;;10.86;52.97;95055.56;5007726;28;20034;-69
2021/08/16 05:28:46;;;;;;;5.45;1.88;;;;;;;10.94;52.44;95064.41;5008162;28;20046;-68
2021/08/16 05:31:11;;;;;;;3.53;1.38;;;;;;;10.68;52.99;95058.69;5008449;28;20092;-68
2021/08/16 05:33:37;;;;;;;2.38;1.25;;;;;;;10.28;54.82;95069.81;4997367;28;20513;-68
2021/08/16 05:36:02;;;;;;;3.63;1.33;;;;;;;10.36;54.14;95077.66;5006140;28;20474;-69
2021/08/16 05:38:28;;;;;;;4.53;1.70;;;;;;;10.35;54.56;95076.03;5004053;28;20049;-69
2021/08/16 05:40:53;;;;;;;1.67;0.90;;;;;;;10.43;54.56;95067.06;5004255;28;20057;-69
2021/08/16 05:43:19;;;;;;;3.40;1.42;;;;;;;10.23;54.69;95073.03;5004923;28;20034;-68
2021/08/16 05:45:44;;;;;;;0.93;0.73;;;;;;;10.09;55.60;95071.25;5004877;28;20030;-67
2021/08/16 05:48:10;;;;;;;3.80;1.25;;;;;;;9.86;56.40;95080.16;5004091;28;20053;-67
2021/08/16 05:50:35;;;;;;;5.63;1.67;;;;;;;10.22;55.33;95081.19;5004322;28;20038;-67
2021/08/16 05:53:01;;;;;;;3.17;1.30;;;;;;;9.85;56.92;95082.00;4997635;28;20689;-68
2021/08/16 05:55:26;;;;;;;1.42;0.98;;;;;;;10.32;55.85;95073.75;5001122;28;20037;-68
2021/08/16 05:57:52;;;;;;;1.13;1.00;;;;;;;10.15;55.85;95074.97;5000509;28;20069;-69
2021/08/16 06:00:18;;;;;;;6.18;1.40;;;;;;;9.84;57.17;95079.53;4999324;28;20041;-69
2021/08/16 06:02:44;;;;;;;3.50;1.33;;;;;;;9.88;57.43;95069.34;4997764;28;20034;-69
2021/08/16 06:05:09;;;;;;;3.95;1.60;;;;;;;9.27;58.28;95066.75;5001415;28;20092;-69
2021/08/16 06:07:35;;;;;;;2.42;1.40;;;;;;;9.04;58.94;95080.94;5001697;28;20514;-70
2021/08/16 06:10:00;;;;;;;4.00;1.52;;;;;;;9.58;57.66;95091.47;5000629;28;20511;-69
2021/08/16 06:12:26;;;;;;;5.63;1.45;;;;;;;9.02;58.95;95075.00;5001293;28;20442;-69
2021/08/16 06:14:51;;;;;;;3.55;1.60;;;;;;;8.76;60.06;95085.97;5006197;28;20029;-69
2021/08/16 06:17:17;;;;;;;4.72;1.63;;;;;;;9.42;58.57;95095.16;5001699;28;20049;-69
2021/08/16 06:19:43;;;;;;;4.55;1.40;;;;;;;9.44;58.40;95083.34;5003952;28;20018;-69
2021/08/16 06:22:08;;;;;;;3.45;1.40;;;;;;;9.41;59.24;95093.50;5005226;28;20038;-69
2021/08/16 06:24:35;;;;;;;2.90;1.42;;;;;;;9.00;60.51;95094.75;5005137;28;20030;-69
2021/08/16 06:27:01;;;;;;;3.90;1.70;;;;;;;9.76;57.82;95101.72;5003376;28;20026;-66
2021/08/16 06:29:26;;;;;;;3.30;1.60;;;;;;;9.55;58.11;95107.78;5004254;28;20049;-65
2021/08/16 06:31:52;;;;;;;4.68;1.40;;;;;;;9.59;58.10;95111.75;5005262;28;20422;-65
2021/08/16 06:34:17;;;;;;;3.40;1.40;;;;;;;10.01;56.77;95116.53;5004290;28;20507;-66
2021/08/16 06:36:44;;;;;;;3.80;1.40;;;;;;;10.39;55.74;95105.72;5002715;28;20484;-65
2021/08/16 06:39:18;;;;;;;8.38;1.30;;;;;;;10.45;55.70;95117.44;5004980;28;20030;-65
2021/08/16 06:41:45;;;;;;;6.03;1.48;;;;;;;10.68;55.28;95103.94;5005074;28;20121;-66
2021/08/16 06:44:11;;;;;;;2.53;1.30;;;;;;;10.86;54.33;95110.66;5002837;28;20108;-67
2021/08/16 06:46:38;;;;;;;3.45;1.55;;;;;;;10.54;54.99;95108.31;5001417;28;20482;-67
2021/08/16 06:49:03;;;;;;;4.13;1.20;;;;;;;11.18;53.32;95105.00;5003523;28;20033;-66
2021/08/16 06:51:29;;;;;;;2.33;1.20;;;;;;;10.68;55.14;95105.78;5000265;28;20041;-67
2021/08/16 06:53:54;;;;;;;3.05;1.20;;;;;;;11.38;53.27;95100.59;5000659;28;20517;-67
2021/08/16 06:56:19;;;;;;;2.35;1.20;;;;;;;11.05;54.05;95103.81;5003778;28;20053;-65
2021/08/16 06:58:45;;;;;;;2.80;1.23;;;;;;;10.55;55.71;95109.16;5000668;28;20546;-65
2021/08/16 07:01:19;;;;;;;3.55;1.65;;;;;;;10.84;54.60;95110.84;5000637;28;20391;-67
2021/08/16 07:03:44;;;;;;;3.42;1.30;;;;;;;10.91;54.60;95110.88;5004555;28;20072;-67
2021/08/16 07:06:10;;;;;;;2.10;1.30;;;;;;;10.93;54.11;95110.69;5004054;28;20045;-67
2021/08/16 07:08:35;;;;;;;2.85;1.50;;;;;;;10.59;55.36;95105.09;5004920;28;20046;-65
2021/08/16 07:11:00;;;;;;;4.68;1.73;;;;;;;10.72;55.46;95101.72;5003203;28;20049;-65
2021/08/16 07:13:26;;;;;;;4.43;1.83;;;;;;;10.75;55.63;95106.69;5001895;28;20034;-65
2021/08/16 07:15:51;;;;;;;6.63;1.60;;;;;;;10.41;55.96;95105.53;5004930;28;20479;-66
2021/08/16 07:18:17;;;;;;;3.35;1.42;;;;;;;11.55;53.40;95105.63;5003705;28;20399;-66
2021/08/16 07:20:44;;;;;;;3.03;1.58;;;;;;;11.92;51.99;95110.72;5003551;28;20246;-66
2021/08/16 07:23:10;;;;;;;2.63;1.50;;;;;;;10.50;55.72;95112.38;5000034;28;20069;-66
2021/08/16 07:25:36;;;;;;;3.75;1.40;;;;;;;10.67;55.23;95118.28;5004463;28;20529;-66
2021/08/16 07:28:02;;;;;;;6.70;1.60;;;;;;;11.38;53.49;95111.28;5002288;28;20034;-66
2021/08/16 07:30:27;;;;;;;5.78;1.83;;;;;;;10.92;55.18;95117.06;5003295;28;21012;-67
2021/08/16 07:32:53;;;;;;;3.40;1.02;;;;;;;10.92;55.60;95120.56;5003337;28;20036;-68
2021/08/16 07:35:20;;;;;;;6.07;1.50;;;;;;;11.17;55.13;95125.47;5003976;28;20068;-67
2021/08/16 07:37:46;;;;;;;4.15;1.65;;;;;;;11.13;54.99;95125.03;5004006;28;20589;-67
2021/08/16 07:40:12;;;;;;;2.97;1.40;;;;;;;10.91;55.91;95120.75;5003359;28;20364;-67
2021/08/16 07:42:41;;;;;;;4.53;1.63;;;;;;;11.38;54.92;95119.25;5002270;28;20414;-67
2021/08/16 07:45:08;;;;;;;4.47;1.80;;;;;;;10.53;56.26;95130.63;5001936;28;20485;-67
2021/08/16 07:47:33;;;;;;;6.05;1.40;;;;;;;10.99;56.04;95124.06;5003743;28;20037;-67
2021/08/16 07:49:59;;;;;;;5.70;1.42;;;;;;;11.81;53.67;95125.44;5001802;28;20751;-68
2021/08/16 07:52:24;;;;;;;3.08;2.05;;;;;;;11.56;53.69;95128.56;5003699;28;20038;-67
2021/08/16 07:54:53;;;;;;;9.80;2.20;;;;;;;11.33;54.31;95136.84;5005371;28;20080;-67
2021/08/16 07:57:19;;;;;;;3.20;1.55;;;;;;;11.25;55.03;95133.31;5006117;28;20045;-67
2021/08/16 07:59:44;;;;;;;3.05;1.30;;;;;;;11.30;54.57;95135.41;5004536;28;20038;-66
2021/08/16 08:02:10;;;;;;;3.88;1.55;;;;;;;11.20;54.24;95127.75;5011587;28;20104;-66
2021/08/16 08:04:35;;;;;;;3.95;1.27;;;;;;;11.83;53.32;95128.72;5005356;28;20118;-66
2021/08/16 08:07:01;;;;;;;6.68;1.45;;;;;;;11.95;52.90;95128.16;5003325;28;20090;-67
2021/08/16 08:09:27;;;;;;;4.47;1.73;;;;;;;11.59;53.03;95119.38;5003159;28;20122;-67
2021/08/16 08:11:52;;;;;;;1.95;0.93;;;;;;;11.83;53.67;95130.59;5003509;28;20189;-67
2021/08/16 08:14:18;;;;;;;4.15;1.40;;;;;;;11.62;53.29;95124.31;5004186;28;20362;-67
2021/08/16 08:16:43;;;;;;;5.20;1.63;;;;;;;11.54;54.00;95127.97;5002681;28;20440;-67
2021/08/16 08:19:08;;;;;;;5.15;1.60;;;;;;;12.29;53.01;95137.16;5003214;28;20075;-67
2021/08/16 08:21:34;;;;;;;4.53;1.40;;;;;;;11.56;54.45;95128.56;5002942;28;20110;-67
2021/08/16 08:23:59;;;;;;;3.83;1.65;;;;;;;11.07;55.69;95128.44;5003000;28;20082;-67
2021/08/16 08:26:25;;;;;;;3.30;1.50;;;;;;;11.50;54.58;95124.06;5001510;28;20109;-67
2021/08/16 08:28:50;;;;;;;2.25;1.40;;;;;;;11.45;54.65;95132.63;5003011;28;20033;-66
2021/08/16 08:31:16;;;;;;;5.10;1.45;;;;;;;11.10;56.16;95124.59;5000826;28;20648;-64
2021/08/16 08:33:41;;;;;;;5.20;1.70;;;;;;;10.99;56.22;95128.59;5003853;28;20752;-65
2021/08/16 08:36:06;;;;;;;3.80;1.70;;;;;;;9.99;60.18;95130.00;5001028;28;20467;-66
2021/08/16 08:38:32;;;;;;;3.15;1.40;;;;;;;10.98;56.49;95127.75;4998027;28;20080;-66
2021/08/16 08:40:58;;;;;;;3.88;1.50;;;;;;;11.59;55.63;95133.53;5002446;28;20064;-66
2021/08/16 08:43:24;;;;;;;4.00;1.35;;;;;;;12.33;52.74;95125.03;5001445;28;20486;-67
2021/08/16 08:45:49;;;;;;;1.25;1.15;;;;;;;12.18;53.87;95127.06;5002810;28;20113;-66
2021/08/16 08:48:17;;;;;;;11.35;1.67;;;;;;;11.97;54.13;95131.47;4984554;28;20086;-65
2021/08/16 08:50:42;;;;;;;3.00;1.30;;;;;;;12.86;52.02;95128.00;5002121;28;20129;-65
2021/08/16 08:53:08;;;;;;;5.60;1.50;;;;;;;12.05;54.46;95125.13;4998319;28;20093;-65
2021/08/16 08:55:33;;;;;;;3.60;1.42;;;;;;;12.50;52.38;95130.00;5002585;28;20432;-64
2021/08/16 08:58:00;;;;;;;8.57;1.42;;;;;;;12.38;52.39;95133.25;5000879;28;20545;-65
2021/08/16 09:00:26;;;;;;;2.50;1.33;;;;;;;12.57;52.26;95140.72;4998932;28;20037;-64
2021/08/16 09:02:58;;;;;;;3.80;1.67;;;;;;;11.36;54.08;95123.94;4996770;28;20052;-65
2021/08/16 09:05:24;;;;;;;2.80;1.33;;;;;;;11.75;53.59;95144.88;5001992;28;20052;-64
2021/08/16 09:07:49;;;;;;;8.00;1.70;;;;;;;11.58;53.50;95134.56;4998750;28;20037;-64
2021/08/16 09:10:15;;;;;;;4.20;1.70;;;;;;;11.28;54.73;95137.44;5005912;28;20045;-64
2021/08/16 09:12:41;;;;;;;5.88;2.15;;;;;;;11.21;54.39;95115.25;5001815;28;20034;-66
2021/08/16 09:15:16;;;;;;;5.88;1.55;;;;;;;11.11;54.82;95129.72;5005758;28;20139;-64
2021/08/16 09:17:42;;;;;;;2.83;1.50;;;;;;;11.21;55.11;95131.22;5001777;28;20038;-64
2021/08/16 09:20:25;;;;;;;3.20;1.50;;;;;;;11.92;54.11;95124.06;5002157;28;20057;-64
2021/08/16 09:23:04;;;;;;;7.35;1.90;;;;;;;12.04;52.71;95126.97;5002172;28;20090;-64
2021/08/16 09:25:36;;;;;;;4.15;1.67;;;;;;;12.85;51.01;95113.00;5000318;28;20191;-64
2021/08/16 09:28:02;;;;;;;6.25;2.00;;;;;;;12.75;52.04;95103.53;5008665;28;20189;-64
2021/08/16 09:30:38;;;;;;;4.95;1.77;;;;;;;12.91;50.96;95110.34;5001542;28;20121;-64
2021/08/16 09:33:14;;;;;;;6.57;2.03;;;;;;;12.76;51.46;95123.06;4996634;28;20474;-64
2021/08/16 09:35:53;;;;;;;5.07;1.75;;;;;;;12.38;52.64;95127.91;4999827;28;20898;-64
2021/08/16 09:38:30;;;;;;;4.25;1.67;;;;;;;12.44;53.22;95128.97;4997900;28;20424;-64
2021/08/16 09:40:55;;;;;;;3.45;1.80;;;;;;;12.95;51.07;95117.94;4999733;28;20498;-64
2021/08/16 09:43:25;;;;;;;3.38;1.55;;;;;;;13.17;50.73;95127.44;4983817;28;20148;-63
2021/08/16 09:45:50;;;;;;;3.30;1.70;;;;;;;12.71;52.54;95122.88;4997720;28;20577;-66
2021/08/16 09:48:20;;;;;;;4.13;1.60;;;;;;;13.60;50.35;95114.59;5001648;28;20034;-66
2021/08/16 09:50:47;;;;;;;5.25;1.77;;;;;;;13.38;49.64;95114.03;5000705;28;20082;-64
2021/08/16 09:53:16;;;;;;;4.20;1.85;;;;;;;13.19;50.88;95132.53;5003493;28;20112;-64
2021/08/16 09:55:43;;;;;;;3.55;1.75;;;;;;;12.98;51.11;95122.88;5007925;28;20593;-64
2021/08/16 09:58:12;;;;;;;5.38;2.15;;;;;;;11.73;53.74;95139.75;5002838;28;20464;-64
2021/08/16 10:00:38;;;;;;;6.32;1.90;;;;;;;12.93;50.95;95135.00;5001247;28;20106;-64
2021/08/16 10:03:04;;;;;;;6.22;1.98;;;;;;;12.76;50.80;95139.94;5005325;28;20446;-64
2021/08/16 10:05:30;;;;;;;2.30;1.58;;;;;;;12.61;51.75;95133.94;5004054;28;20571;-63
2021/08/16 10:07:55;;;;;;;4.93;2.03;;;;;;;13.15;49.52;95129.47;5003886;28;20041;-64
2021/08/16 10:10:21;;;;;;;6.32;2.13;;;;;;;12.65;51.42;95135.19;5003169;28;20465;-64
2021/08/16 10:12:46;;;;;;;8.85;2.35;;;;;;;12.46;51.97;95126.94;5005204;28;20144;-65
2021/08/16 10:15:12;;;;;;;6.78;2.25;;;;;;;12.49;51.46;95131.03;5001767;28;20042;-64
2021/08/16 10:17:38;;;;;;;4.72;1.90;;;;;;;12.67;51.48;95130.44;5002657;28;20049;-64
2021/08/16 10:20:04;;;;;;;4.15;1.70;;;;;;;12.89;50.90;95123.06;4985953;28;20026;-65
2021/08/16 10:22:37;;;;;;;5.25;2.00;;;;;;;13.23;50.15;95124.97;4983712;28;20125;-65
2021/08/16 10:25:13;;;;;;;5.32;1.92;;;;;;;12.97;50.98;95123.91;5000672;28;20034;-65
2021/08/16 10:27:38;;;;;;;6.43;2.00;;;;;;;12.32;52.52;95130.56;5002551;28;20088;-65
2021/08/16 10:30:06;;;;;;;5.28;2.10;;;;;;;13.43;49.61;95125.75;5002882;28;20566;-65
2021/08/16 10:32:32;;;;;;;5.85;1.70;;;;;;;13.29;50.30;95130.28;5003781;28;20045;-66
2021/08/16 10:35:07;;;;;;;6.93;2.10;;;;;;;13.83;48.96;95124.84;5003212;28;20060;-66
2021/08/16 10:37:37;;;;;;;5.22;2.08;;;;;;;13.49;49.39;95131.31;5005629;28;20503;-66
2021/08/16 10:40:19;;;;;;;4.07;2.08;;;;;;;13.59;49.13;95120.97;5006324;28;20032;-65
2021/08/16 10:42:44;;;;;;;4.20;2.05;;;;;;;13.02;50.91;95134.84;5008144;28;20049;-65
2021/08/16 10:45:10;;;;;;;5.80;1.83;;;;;;;13.55;49.71;95125.09;5006688;28;20030;-65
2021/08/16 10:47:36;;;;;;;6.88;2.30;;;;;;;14.08;49.07;95126.81;5001966;28;20034;-65
2021/08/16 10:50:08;;;;;;;4.93;2.05;;;;;;;14.12;47.74;95129.91;5003719;28;20042;-65
2021/08/16 10:52:33;;;;;;;8.20;2.00;;;;;;;13.54;49.72;95121.59;5000516;28;20514;-64
2021/08/16 10:55:25;;;;;;;3.85;1.80;;;;;;;13.85;48.72;95119.28;5001319;28;20054;-65
2021/08/16 10:57:50;;;;;;;8.13;2.30;;;;;;;14.25;48.02;95117.50;5002872;28;20044;-65
2021/08/16 11:00:16;;;;;;;5.90;2.17;;;;;;;14.69;48.00;95110.41;5005059;28;20026;-65
2021/08/16 11:02:42;;;;;;;8.23;2.25;;;;;;;14.87;46.92;95116.09;5002573;28;20131;-65
2021/08/16 11:05:11;;;;;;;5.90;2.13;;;;;;;14.70;47.54;95117.44;5002132;28;20042;-65
2021/08/16 11:07:36;;;;;;;9.23;2.47;;;;;;;14.12;48.33;95129.91;4996647;28;20037;-65
2021/08/16 11:10:05;;;;;;;4.82;2.05;;;;;;;14.16;47.18;95112.38;5001737;28;20053;-64
2021/08/16 11:12:39;;;;;;;9.70;1.92;;;;;;;13.67;48.46;95118.06;4994666;28;20365;-65
2021/08/16 11:15:05;;;;;;;6.68;1.85;;;;;;;13.38;49.78;95128.22;5000380;28;20112;-65
2021/08/16 11:17:30;;;;;;;6.18;1.88;;;;;;;13.02;51.04;95124.16;5001735;28;20204;-64
2021/08/16 11:20:00;;;;;;;6.65;2.22;;;;;;;13.29;50.73;95116.09;5004507;28;20467;-64
2021/08/16 11:22:26;;;;;;;4.03;2.03;;;;;;;12.91;51.69;95120.19;4999509;28;20141;-64
2021/08/16 11:24:51;;;;;;;5.45;2.08;;;;;;;13.34;50.32;95129.69;5002271;28;20132;-64
2021/08/16 11:27:18;;;;;;;6.75;2.10;;;;;;;12.77;52.39;95128.22;5008678;28;20042;-65
2021/08/16 11:29:44;;;;;;;5.70;1.73;;;;;;;11.73;55.82;95136.28;4992791;28;20137;-65